createdAt,value
2022-08-26T00:04:28.857Z,20.35
2022-08-26T00:20:11.418Z,20.18
2022-08-26T00:35:53.661Z,20.06
2022-08-26T00:51:35.743Z,19.94
2022-08-26T01:07:19.198Z,19.83
2022-08-26T01:23:01.224Z,19.83
2022-08-26T01:38:43.783Z,19.78
2022-08-26T01:54:26.238Z,19.74
2022-08-26T02:10:08.984Z,19.66
2022-08-26T02:25:51.302Z,19.57
2022-08-26T02:41:33.864Z,19.49
2022-08-26T02:57:16.208Z,19.6
2022-08-26T03:12:59.024Z,19.56
2022-08-26T03:28:41.251Z,19.44
2022-08-26T03:44:23.286Z,19.31
2022-08-26T04:00:06.230Z,19.23
2022-08-26T04:15:48.376Z,19.17
2022-08-26T04:31:30.753Z,19.18
2022-08-26T04:47:13.066Z,19.28
2022-08-26T04:48:00.311Z,19.43
2022-08-26T05:03:43.267Z,19.54
2022-08-26T05:19:25.291Z,19.93
2022-08-26T05:35:08.072Z,21.29
2022-08-26T05:50:50.830Z,22.39
2022-08-26T06:06:33.675Z,23.14
2022-08-26T06:22:15.837Z,23.72
2022-08-26T06:37:58.541Z,24.22
2022-08-26T06:53:40.656Z,24.6
2022-08-26T07:09:22.635Z,24.88
2022-08-26T07:25:05.124Z,25.1
2022-08-26T07:40:47.863Z,25.3
2022-08-26T07:56:30.282Z,25.44
2022-08-26T08:12:12.876Z,25.57
2022-08-26T08:27:55.366Z,25.66
2022-08-26T08:43:38.141Z,25.72
2022-08-26T08:59:20.091Z,25.79
2022-08-26T09:15:02.768Z,25.86
2022-08-26T09:30:44.918Z,25.94
2022-08-26T09:46:27.582Z,26
2022-08-26T10:02:10.446Z,26.04
2022-08-26T10:17:53.153Z,26.09
2022-08-26T10:33:35.327Z,26.17
2022-08-26T10:49:17.997Z,26.26
2022-08-26T11:05:00.709Z,26.28
2022-08-26T11:20:42.890Z,26.22
2022-08-26T11:36:25.401Z,26.17
2022-08-26T11:52:07.737Z,26.1
2022-08-26T12:07:50.006Z,26.06
2022-08-26T12:23:32.876Z,26
2022-08-26T12:39:15.705Z,25.97
2022-08-26T12:54:57.859Z,25.95
2022-08-26T13:10:40.057Z,25.93
2022-08-26T13:26:22.358Z,25.9
2022-08-26T13:42:04.320Z,25.89
2022-08-26T13:57:46.728Z,25.88
2022-08-26T14:13:29.594Z,25.89
2022-08-26T14:29:11.639Z,25.89
2022-08-26T14:44:54.047Z,25.87
2022-08-26T15:00:36.454Z,25.85
2022-08-26T15:16:18.897Z,25.83
2022-08-26T15:32:01.678Z,25.79
2022-08-26T15:47:44.485Z,25.76
2022-08-26T16:03:27.201Z,25.73
2022-08-26T16:19:09.418Z,25.7
2022-08-26T16:34:51.735Z,25.67
2022-08-26T16:50:34.362Z,25.66
2022-08-26T17:06:16.715Z,25.64
2022-08-26T17:21:59.068Z,25.63
2022-08-26T17:37:41.711Z,25.62
2022-08-26T17:53:24.637Z,25.6
2022-08-26T18:09:06.995Z,25.59
2022-08-26T18:24:49.750Z,25.58
2022-08-26T18:40:31.893Z,25.57
2022-08-26T18:56:14.566Z,25.56
2022-08-26T19:11:57.436Z,25.55
2022-08-26T19:27:40.032Z,25.54
2022-08-26T19:43:22.340Z,25.54
2022-08-26T19:59:04.846Z,25.53
2022-08-26T20:14:47.585Z,25.52
2022-08-26T20:30:29.527Z,25.52
2022-08-26T20:46:11.930Z,25.51
2022-08-26T21:01:54.735Z,25.51
2022-08-26T21:17:36.924Z,25.51
2022-08-26T21:33:18.913Z,25.5
2022-08-26T21:49:01.496Z,25.52
2022-08-26T22:04:43.867Z,25.52
2022-08-26T22:20:26.045Z,25.51
2022-08-26T22:36:08.302Z,25.47
2022-08-26T22:51:50.350Z,25.46
2022-08-26T23:07:32.599Z,25.44
2022-08-26T23:23:15.462Z,25.43
2022-08-26T23:38:58.334Z,25.42
2022-08-26T23:54:40.756Z,25.41
